createdAt,value
2023-11-06T00:00:09.845Z,83.75
2023-11-06T00:00:30.814Z,83.85
2023-11-06T00:00:51.719Z,83.95
2023-11-06T00:01:12.661Z,84.16
2023-11-06T00:01:33.621Z,84.16
2023-11-06T00:01:54.587Z,84.50
2023-11-06T00:02:15.533Z,84.16
2023-11-06T00:02:36.467Z,83.95
2023-11-06T00:02:57.508Z,83.99
2023-11-06T00:03:18.502Z,84.16
2023-11-06T00:03:38.994Z,84.20
2023-11-06T00:03:59.930Z,84.40
2023-11-06T00:04:20.886Z,84.40
2023-11-06T00:04:41.858Z,84.20
2023-11-06T00:05:02.754Z,83.99
2023-11-06T00:05:23.846Z,83.99
2023-11-06T00:05:44.592Z,84.20
2023-11-06T00:06:05.131Z,84.30
2023-11-06T00:06:26.032Z,84.30
2023-11-06T00:06:46.958Z,84.20
2023-11-06T00:07:07.914Z,84.09
2023-11-06T00:07:28.828Z,84.09
2023-11-06T00:07:49.781Z,83.99
2023-11-06T00:08:10.789Z,83.89
2023-11-06T00:08:31.268Z,84.09
2023-11-06T00:08:52.201Z,84.40
2023-11-06T00:09:13.111Z,84.30
2023-11-06T00:09:34.098Z,84.20
2023-11-06T00:09:55.092Z,84.20
2023-11-06T00:10:15.995Z,84.20
2023-11-06T00:10:36.953Z,84.09
2023-11-06T00:10:57.920Z,83.89
2023-11-06T00:11:18.941Z,84.09
2023-11-06T00:11:39.872Z,84.61
2023-11-06T00:12:00.827Z,84.40
2023-11-06T00:12:21.765Z,84.09
2023-11-06T00:12:42.706Z,83.99
2023-11-06T00:13:03.644Z,84.09
2023-11-06T00:13:24.588Z,84.20
2023-11-06T00:13:45.547Z,84.40
2023-11-06T00:14:06.502Z,84.30
2023-11-06T00:14:27.401Z,84.30
2023-11-06T00:14:48.378Z,84.50
2023-11-06T00:15:09.298Z,84.71
2023-11-06T00:15:30.247Z,84.61
2023-11-06T00:15:51.193Z,84.50
2023-11-06T00:16:19.457Z,84.20
2023-11-06T00:16:34.004Z,83.99
2023-11-06T00:16:53.987Z,84.30
2023-11-06T00:17:14.966Z,83.99
2023-11-06T00:17:35.533Z,83.95
2023-11-06T00:17:56.041Z,84.09
2023-11-06T00:18:17.002Z,83.95
2023-11-06T00:18:37.582Z,84.05
2023-11-06T00:18:58.478Z,84.05
2023-11-06T00:19:19.411Z,83.85
2023-11-06T00:19:40.390Z,83.64
2023-11-06T00:20:01.455Z,83.64
2023-11-06T00:20:21.874Z,83.85
2023-11-06T00:20:42.779Z,84.16
2023-11-06T00:21:03.281Z,84.36
2023-11-06T00:21:27.717Z,84.47
2023-11-06T00:21:44.762Z,84.50
2023-11-06T00:22:05.751Z,84.40
2023-11-06T00:22:26.717Z,84.20
2023-11-06T00:22:47.696Z,84.09
2023-11-06T00:23:08.633Z,83.99
2023-11-06T00:23:29.544Z,84.09
2023-11-06T00:23:50.499Z,84.20
2023-11-06T00:24:11.441Z,84.30
2023-11-06T00:24:32.389Z,84.30
2023-11-06T00:24:53.330Z,84.40
2023-11-06T00:25:14.276Z,84.61
2023-11-06T00:25:35.193Z,84.81
2023-11-06T00:25:56.138Z,84.71
2023-11-06T00:26:17.116Z,84.71
2023-11-06T00:26:38.021Z,84.91
2023-11-06T00:26:58.989Z,84.91
2023-11-06T00:27:19.932Z,84.81
2023-11-06T00:27:40.863Z,84.91
2023-11-06T00:28:01.830Z,84.81
2023-11-06T00:28:22.741Z,84.81
2023-11-06T00:28:43.727Z,84.71
2023-11-06T00:29:04.674Z,84.40
2023-11-06T00:29:25.617Z,84.50
2023-11-06T00:29:46.554Z,84.61
2023-11-06T00:30:07.480Z,84.71
2023-11-06T00:30:28.428Z,84.61
2023-11-06T00:30:49.377Z,84.26
2023-11-06T00:31:10.292Z,84.56
2023-11-06T00:31:31.219Z,84.67
2023-11-06T00:31:52.222Z,84.36
2023-11-06T00:32:13.380Z,84.16
2023-11-06T00:32:34.103Z,84.47
2023-11-06T00:32:55.051Z,84.77
2023-11-06T00:33:15.986Z,84.77
2023-11-06T00:33:36.965Z,84.77
2023-11-06T00:33:57.929Z,85.02
2023-11-06T00:34:18.962Z,84.81
2023-11-06T00:34:39.499Z,84.81
2023-11-06T00:35:00.450Z,84.61
2023-11-06T00:35:21.442Z,84.81
2023-11-06T00:35:42.358Z,84.91
2023-11-06T00:36:03.306Z,85.02
2023-11-06T00:36:24.393Z,85.02
2023-11-06T00:36:44.861Z,84.91
2023-11-06T00:37:05.798Z,84.81
2023-11-06T00:37:26.737Z,84.91
2023-11-06T00:37:47.689Z,85.22
2023-11-06T00:38:08.645Z,85.02
2023-11-06T00:38:29.617Z,84.71
2023-11-06T00:38:50.515Z,84.71
2023-11-06T00:39:11.439Z,84.67
2023-11-06T00:39:32.405Z,84.56
2023-11-06T00:39:53.339Z,84.77
2023-11-06T00:40:14.294Z,84.88
2023-11-06T00:40:35.260Z,84.77
2023-11-06T00:40:56.177Z,84.56
2023-11-06T00:41:17.147Z,84.56
2023-11-06T00:41:38.127Z,84.56
2023-11-06T00:41:59.035Z,84.47
2023-11-06T00:42:19.979Z,84.47
2023-11-06T00:42:40.915Z,84.77
2023-11-06T00:43:01.828Z,84.98
2023-11-06T00:43:22.783Z,85.08
2023-11-06T00:43:43.805Z,84.98
2023-11-06T00:44:04.746Z,84.91
2023-11-06T00:44:25.677Z,85.02
2023-11-06T00:44:46.614Z,85.12
2023-11-06T00:45:07.576Z,85.22
2023-11-06T00:45:28.524Z,85.74
2023-11-06T00:45:49.441Z,85.94
2023-11-06T00:46:10.383Z,85.43
2023-11-06T00:46:31.301Z,85.43
2023-11-06T00:46:52.284Z,85.53
2023-11-06T00:47:13.179Z,85.63
2023-11-06T00:47:34.101Z,85.53
2023-11-06T00:47:55.133Z,85.33
2023-11-06T00:48:16.124Z,85.22
2023-11-06T00:48:36.551Z,85.22
2023-11-06T00:48:57.537Z,85.02
2023-11-06T00:49:18.482Z,85.22
2023-11-06T00:49:39.419Z,85.28
2023-11-06T00:50:00.449Z,85.08
2023-11-06T00:50:20.940Z,84.77
2023-11-06T00:50:41.942Z,84.77
2023-11-06T00:51:02.374Z,84.88
2023-11-06T00:51:23.327Z,84.98
2023-11-06T00:51:44.279Z,85.18
2023-11-06T00:52:05.235Z,85.08
2023-11-06T00:52:26.167Z,85.12
2023-11-06T00:52:47.150Z,85.33
2023-11-06T00:53:08.105Z,85.53
2023-11-06T00:53:29.024Z,85.74
2023-11-06T00:53:49.979Z,85.53
2023-11-06T00:54:10.931Z,85.74
2023-11-06T00:54:31.849Z,85.63
2023-11-06T00:54:52.777Z,85.53
2023-11-06T00:55:13.747Z,85.53
2023-11-06T00:55:34.650Z,85.53
2023-11-06T00:55:55.643Z,85.53
2023-11-06T00:56:19.411Z,85.74
2023-11-06T00:56:37.288Z,85.74
2023-11-06T00:56:58.230Z,85.84
2023-11-06T00:57:19.244Z,85.94
2023-11-06T00:57:39.687Z,86.25
2023-11-06T00:58:00.679Z,86.15
2023-11-06T00:58:21.564Z,86.05
2023-11-06T00:58:42.557Z,86.05
2023-11-06T00:59:03.442Z,86.15
2023-11-06T00:59:24.437Z,86.25
2023-11-06T00:59:45.340Z,86.35
2023-11-06T01:00:06.290Z,86.15
2023-11-06T01:00:27.226Z,85.84
2023-11-06T01:00:48.177Z,85.74
2023-11-06T01:01:09.150Z,85.84
2023-11-06T01:01:30.093Z,85.84
2023-11-06T01:01:51.046Z,85.74
2023-11-06T01:02:12.002Z,85.53
2023-11-06T01:02:32.903Z,85.39
2023-11-06T01:02:53.882Z,85.53
2023-11-06T01:03:14.831Z,85.84
2023-11-06T01:03:35.783Z,85.63
2023-11-06T01:03:56.731Z,85.53
2023-11-06T01:04:17.812Z,85.84
2023-11-06T01:04:38.255Z,86.15
2023-11-06T01:04:59.209Z,85.94
2023-11-06T01:05:20.153Z,85.84
2023-11-06T01:05:41.089Z,86.05
2023-11-06T01:06:01.999Z,86.05
2023-11-06T01:06:22.936Z,86.05
2023-11-06T01:06:43.849Z,86.15
2023-11-06T01:07:04.787Z,86.25
2023-11-06T01:07:25.743Z,86.56
2023-11-06T01:07:46.720Z,86.77
2023-11-06T01:08:07.661Z,86.66
2023-11-06T01:08:28.576Z,86.77
2023-11-06T01:08:49.561Z,86.66
2023-11-06T01:09:10.516Z,86.87
2023-11-06T01:09:31.505Z,86.66
2023-11-06T01:09:52.500Z,86.56
2023-11-06T01:10:13.383Z,86.35
2023-11-06T01:10:34.337Z,86.05
2023-11-06T01:10:55.279Z,86.05
2023-11-06T01:11:16.269Z,86.05
2023-11-06T01:11:37.218Z,86.05
2023-11-06T01:11:58.134Z,86.15
2023-11-06T01:12:19.097Z,86.05
2023-11-06T01:12:40.036Z,86.05
2023-11-06T01:13:00.982Z,86.05
2023-11-06T01:13:21.930Z,86.25
2023-11-06T01:13:42.854Z,86.15
2023-11-06T01:14:03.834Z,85.94
2023-11-06T01:14:24.759Z,86.05
2023-11-06T01:14:45.703Z,86.05
2023-11-06T01:15:06.738Z,86.15
2023-11-06T01:15:27.195Z,86.05
2023-11-06T01:15:48.158Z,86.15
2023-11-06T01:16:09.123Z,86.05
2023-11-06T01:16:30.085Z,86.15
2023-11-06T01:16:51.043Z,86.25
2023-11-06T01:17:11.971Z,86.25
2023-11-06T01:17:32.981Z,86.15
2023-11-06T01:17:53.885Z,86.25
2023-11-06T01:18:14.900Z,86.35
2023-11-06T01:18:35.857Z,86.46
2023-11-06T01:18:56.454Z,86.35
2023-11-06T01:19:16.944Z,86.15
2023-11-06T01:19:37.828Z,86.15
2023-11-06T01:19:58.846Z,86.15
2023-11-06T01:20:19.795Z,86.15
2023-11-06T01:20:40.689Z,86.05
2023-11-06T01:21:01.625Z,86.05
2023-11-06T01:21:22.552Z,86.05
2023-11-06T01:21:43.479Z,86.05
2023-11-06T01:22:06.294Z,85.84
2023-11-06T01:22:34.878Z,86.05
2023-11-06T01:22:46.995Z,85.94
2023-11-06T01:23:06.391Z,85.94
2023-11-06T01:23:27.392Z,85.84
2023-11-06T01:23:48.354Z,85.84
2023-11-06T01:24:09.293Z,85.84
2023-11-06T01:24:30.250Z,85.70
2023-11-06T01:24:51.198Z,85.74
2023-11-06T01:25:12.165Z,85.94
2023-11-06T01:25:33.053Z,85.94
2023-11-06T01:25:54.010Z,85.94
2023-11-06T01:26:14.958Z,85.84
2023-11-06T01:26:35.920Z,86.05
2023-11-06T01:26:56.840Z,86.25
2023-11-06T01:27:17.787Z,86.15
2023-11-06T01:27:38.752Z,86.35
2023-11-06T01:27:59.708Z,86.46
2023-11-06T01:28:20.666Z,86.35
2023-11-06T01:28:41.684Z,86.56
2023-11-06T01:29:02.588Z,86.46
2023-11-06T01:29:23.511Z,86.46
2023-11-06T01:29:44.411Z,86.56
2023-11-06T01:30:05.350Z,86.56
2023-11-06T01:30:26.351Z,86.87
2023-11-06T01:30:47.281Z,86.77
2023-11-06T01:31:08.294Z,86.77
2023-11-06T01:31:29.270Z,86.35
2023-11-06T01:31:50.220Z,86.46
2023-11-06T01:32:11.139Z,86.66
2023-11-06T01:32:32.169Z,86.77
2023-11-06T01:32:52.637Z,86.77
2023-11-06T01:33:13.587Z,86.80
2023-11-06T01:33:34.579Z,86.66
2023-11-06T01:33:55.550Z,86.60
2023-11-06T01:34:16.488Z,86.66
2023-11-06T01:34:37.435Z,86.66
2023-11-06T01:34:58.347Z,86.35
2023-11-06T01:35:19.362Z,86.56
2023-11-06T01:35:40.240Z,86.56
2023-11-06T01:36:01.163Z,86.56
2023-11-06T01:36:22.133Z,86.66
2023-11-06T01:36:43.062Z,86.46
2023-11-06T01:37:03.989Z,86.35
2023-11-06T01:37:24.895Z,86.56
2023-11-06T01:37:45.895Z,86.35
2023-11-06T01:38:06.818Z,86.25
2023-11-06T01:38:27.794Z,86.25
2023-11-06T01:38:48.750Z,86.25
2023-11-06T01:39:09.677Z,86.15
2023-11-06T01:39:30.625Z,86.25
2023-11-06T01:39:51.541Z,86.35
2023-11-06T01:40:12.496Z,86.25
2023-11-06T01:40:33.445Z,86.46
2023-11-06T01:40:54.388Z,86.25
2023-11-06T01:41:15.344Z,86.25
2023-11-06T01:41:36.280Z,86.56
2023-11-06T01:41:57.235Z,86.46
2023-11-06T01:42:18.180Z,86.46
2023-11-06T01:42:39.755Z,86.66
2023-11-06T01:42:59.790Z,86.35
2023-11-06T01:43:20.743Z,86.50
2023-11-06T01:43:41.666Z,86.80
2023-11-06T01:44:02.651Z,86.91
2023-11-06T01:44:23.609Z,86.80
2023-11-06T01:44:44.496Z,86.70
2023-11-06T01:45:05.419Z,86.80
2023-11-06T01:45:26.420Z,86.60
2023-11-06T01:45:47.379Z,86.70
2023-11-06T01:46:08.304Z,86.80
2023-11-06T01:46:29.247Z,87.01
2023-11-06T01:46:50.283Z,86.91
2023-11-06T01:47:10.782Z,86.80
2023-11-06T01:47:31.771Z,86.60
2023-11-06T01:47:52.740Z,86.60
2023-11-06T01:48:13.237Z,86.60
2023-11-06T01:48:34.242Z,86.70
2023-11-06T01:48:54.759Z,86.70
2023-11-06T01:49:15.652Z,86.80
2023-11-06T01:49:36.598Z,86.80
2023-11-06T01:49:57.565Z,86.50
2023-11-06T01:50:18.534Z,86.29
2023-11-06T01:50:39.449Z,86.19
2023-11-06T01:51:00.425Z,86.19
2023-11-06T01:51:21.341Z,86.40
2023-11-06T01:51:42.292Z,86.40
2023-11-06T01:52:03.303Z,86.70
2023-11-06T01:52:23.759Z,86.60
2023-11-06T01:52:44.685Z,86.40
2023-11-06T01:53:05.660Z,86.60
2023-11-06T01:53:26.599Z,86.80
2023-11-06T01:53:47.488Z,86.91
2023-11-06T01:54:08.422Z,86.70
2023-11-06T01:54:29.393Z,86.60
2023-11-06T01:54:50.302Z,86.70
2023-11-06T01:55:11.264Z,86.70
2023-11-06T01:55:32.203Z,86.70
2023-11-06T01:55:53.148Z,86.70
2023-11-06T01:56:14.153Z,86.60
2023-11-06T01:56:35.022Z,86.60
2023-11-06T01:56:55.966Z,86.70
2023-11-06T01:57:17.032Z,86.70
2023-11-06T01:57:37.914Z,86.80
2023-11-06T01:57:58.881Z,86.80
2023-11-06T01:58:19.837Z,86.80
2023-11-06T01:58:40.759Z,86.80
2023-11-06T01:59:01.730Z,86.50
2023-11-06T01:59:22.681Z,86.50
2023-11-06T01:59:43.603Z,86.50
2023-11-06T02:00:04.554Z,86.50
2023-11-06T02:00:25.510Z,86.50
2023-11-06T02:00:46.580Z,86.60
2023-11-06T02:01:06.999Z,86.50
2023-11-06T02:01:27.944Z,86.50
2023-11-06T02:01:48.947Z,86.80
2023-11-06T02:02:09.945Z,86.91
2023-11-06T02:02:30.458Z,87.12
2023-11-06T02:02:50.986Z,87.32
2023-11-06T02:03:11.553Z,87.32
2023-11-06T02:03:32.046Z,87.36
2023-11-06T02:03:53.002Z,87.26
2023-11-06T02:04:14.160Z,87.46
2023-11-06T02:04:34.703Z,87.67
2023-11-06T02:04:55.642Z,87.57
2023-11-06T02:05:16.602Z,87.46
2023-11-06T02:05:37.493Z,87.57
2023-11-06T02:05:58.433Z,87.57
2023-11-06T02:06:19.373Z,87.67
2023-11-06T02:06:40.355Z,87.98
2023-11-06T02:07:01.308Z,88.08
2023-11-06T02:07:22.286Z,88.08
2023-11-06T02:07:43.225Z,88.18
2023-11-06T02:08:04.229Z,88.39
2023-11-06T02:08:25.167Z,88.39
2023-11-06T02:08:45.592Z,88.29
2023-11-06T02:09:06.514Z,88.18
2023-11-06T02:09:27.455Z,87.98
2023-11-06T02:09:48.394Z,87.98
2023-11-06T02:10:09.348Z,87.98
2023-11-06T02:10:30.283Z,87.98
2023-11-06T02:10:51.264Z,87.87
2023-11-06T02:11:12.227Z,87.87
2023-11-06T02:11:33.159Z,87.77
2023-11-06T02:11:54.109Z,87.57
2023-11-06T02:12:15.040Z,87.57
2023-11-06T02:12:35.980Z,87.57
2023-11-06T02:12:56.929Z,87.57
2023-11-06T02:13:17.873Z,87.67
2023-11-06T02:13:38.853Z,87.67
2023-11-06T02:13:59.481Z,87.77
2023-11-06T02:14:20.407Z,87.98
2023-11-06T02:14:41.397Z,87.98
2023-11-06T02:15:02.357Z,87.98
2023-11-06T02:15:23.282Z,88.18
2023-11-06T02:15:44.230Z,87.98
2023-11-06T02:16:05.163Z,87.67
2023-11-06T02:16:26.092Z,87.57
2023-11-06T02:16:47.070Z,87.77
2023-11-06T02:17:08.067Z,87.77
2023-11-06T02:17:28.965Z,87.57
2023-11-06T02:17:49.942Z,87.67
2023-11-06T02:18:10.907Z,87.46
2023-11-06T02:18:31.853Z,87.57
2023-11-06T02:18:52.867Z,87.67
2023-11-06T02:19:13.786Z,87.77
2023-11-06T02:19:34.740Z,87.67
2023-11-06T02:19:55.710Z,87.67
2023-11-06T02:20:16.660Z,87.77
2023-11-06T02:20:37.548Z,87.87
2023-11-06T02:21:00.652Z,87.87
2023-11-06T02:21:19.346Z,87.87
2023-11-06T02:21:46.534Z,87.57
2023-11-06T02:22:01.675Z,87.36
2023-11-06T02:22:21.606Z,87.32
2023-11-06T02:22:42.574Z,87.12
2023-11-06T02:23:03.617Z,87.01
2023-11-06T02:23:24.558Z,87.01
2023-11-06T02:23:45.466Z,86.91
2023-11-06T02:24:06.391Z,86.91
2023-11-06T02:24:27.334Z,87.32
2023-11-06T02:24:48.229Z,87.12
2023-11-06T02:25:09.178Z,87.22
2023-11-06T02:25:30.138Z,87.22
2023-11-06T02:25:51.065Z,87.12
2023-11-06T02:26:12.078Z,87.01
2023-11-06T02:26:32.974Z,87.01
2023-11-06T02:26:53.896Z,87.01
2023-11-06T02:27:14.847Z,87.01
2023-11-06T02:27:35.792Z,87.12
2023-11-06T02:27:56.743Z,86.91
2023-11-06T02:28:17.666Z,87.01
2023-11-06T02:28:38.596Z,87.32
2023-11-06T02:28:59.579Z,87.52
2023-11-06T02:29:20.532Z,87.63
2023-11-06T02:29:41.424Z,87.57
2023-11-06T02:30:02.380Z,87.46
2023-11-06T02:30:23.380Z,87.36
2023-11-06T02:30:44.351Z,87.26
2023-11-06T02:31:05.303Z,87.12
2023-11-06T02:31:26.209Z,86.91
2023-11-06T02:31:47.178Z,87.12
2023-11-06T02:32:08.073Z,87.22
2023-11-06T02:32:29.005Z,87.32
2023-11-06T02:32:49.978Z,87.42
2023-11-06T02:33:11.079Z,87.42
2023-11-06T02:33:31.761Z,87.26
2023-11-06T02:33:52.219Z,87.12
2023-11-06T02:34:13.259Z,87.01
2023-11-06T02:34:33.668Z,87.12
2023-11-06T02:34:54.663Z,87.26
2023-11-06T02:35:15.717Z,87.26
2023-11-06T02:35:36.238Z,87.15
2023-11-06T02:35:57.215Z,87.36
2023-11-06T02:36:18.096Z,87.26
2023-11-06T02:36:39.023Z,87.05
2023-11-06T02:37:00.013Z,87.01
2023-11-06T02:37:20.983Z,87.22
2023-11-06T02:37:41.932Z,87.12
2023-11-06T02:38:02.925Z,87.22
2023-11-06T02:38:23.854Z,87.42
2023-11-06T02:38:44.758Z,87.46
2023-11-06T02:39:05.743Z,87.36
2023-11-06T02:39:26.694Z,87.46
2023-11-06T02:39:47.636Z,87.01
2023-11-06T02:40:08.560Z,86.80
2023-11-06T02:40:29.507Z,86.70
2023-11-06T02:40:50.436Z,86.60
2023-11-06T02:41:11.438Z,86.70
2023-11-06T02:41:32.440Z,86.50
2023-11-06T02:41:53.359Z,86.50
2023-11-06T02:42:14.290Z,86.40
2023-11-06T02:42:35.223Z,86.50
2023-11-06T02:42:56.234Z,86.50
2023-11-06T02:43:17.127Z,86.40
2023-11-06T02:43:38.035Z,86.50
2023-11-06T02:43:59.022Z,86.80
2023-11-06T02:44:20.042Z,86.60
2023-11-06T02:44:40.922Z,86.40
2023-11-06T02:45:01.895Z,86.29
2023-11-06T02:45:22.885Z,86.50
2023-11-06T02:45:43.861Z,86.40
2023-11-06T02:46:04.763Z,86.29
2023-11-06T02:46:25.709Z,86.29
2023-11-06T02:46:46.732Z,86.19
2023-11-06T02:47:07.166Z,86.19
2023-11-06T02:47:28.083Z,86.29
2023-11-06T02:47:49.045Z,86.60
2023-11-06T02:48:10.062Z,86.60
2023-11-06T02:48:30.525Z,86.60
2023-11-06T02:48:51.475Z,86.50
2023-11-06T02:49:12.397Z,86.40
2023-11-06T02:49:33.410Z,86.40
2023-11-06T02:49:53.910Z,86.19
2023-11-06T02:50:14.918Z,86.19
2023-11-06T02:50:35.358Z,86.50
2023-11-06T02:50:56.280Z,86.60
2023-11-06T02:51:17.221Z,86.70
2023-11-06T02:51:38.142Z,86.60
2023-11-06T02:51:59.063Z,86.60
2023-11-06T02:52:20.010Z,86.70
2023-11-06T02:52:41.038Z,86.50
2023-11-06T02:53:01.648Z,86.40
2023-11-06T02:53:22.084Z,86.40
2023-11-06T02:53:42.976Z,86.50
2023-11-06T02:54:03.944Z,86.60
2023-11-06T02:54:24.908Z,86.60
2023-11-06T02:54:45.842Z,86.60
2023-11-06T02:55:06.779Z,86.40
2023-11-06T02:55:27.765Z,86.50
2023-11-06T02:55:48.734Z,86.60
2023-11-06T02:56:09.675Z,86.50
2023-11-06T02:56:30.585Z,86.60
2023-11-06T02:56:51.589Z,86.50
2023-11-06T02:57:12.487Z,86.70
2023-11-06T02:57:33.460Z,86.60
2023-11-06T02:57:54.418Z,86.40
2023-11-06T02:58:15.389Z,86.40
2023-11-06T02:58:36.344Z,86.40
2023-11-06T02:58:57.315Z,86.91
2023-11-06T02:59:18.308Z,86.80
2023-11-06T02:59:38.703Z,86.60
2023-11-06T02:59:59.688Z,86.60
2023-11-06T03:00:20.636Z,86.70
2023-11-06T03:00:41.590Z,86.80
2023-11-06T03:01:02.537Z,86.80
2023-11-06T03:01:23.461Z,86.80
2023-11-06T03:01:44.408Z,86.70
2023-11-06T03:02:05.378Z,86.60
2023-11-06T03:02:26.336Z,86.60
2023-11-06T03:02:47.328Z,86.50
2023-11-06T03:03:07.834Z,86.40
2023-11-06T03:03:28.882Z,86.40
2023-11-06T03:03:49.346Z,86.40
2023-11-06T03:04:09.809Z,86.50
2023-11-06T03:04:30.757Z,86.40
2023-11-06T03:04:51.806Z,86.29
2023-11-06T03:05:12.921Z,86.19
2023-11-06T03:05:33.568Z,86.19
2023-11-06T03:05:54.102Z,86.29
2023-11-06T03:06:14.570Z,86.40
2023-11-06T03:06:35.540Z,86.70
2023-11-06T03:06:56.468Z,86.60
2023-11-06T03:07:17.437Z,86.50
2023-11-06T03:07:38.382Z,86.80
2023-11-06T03:07:59.327Z,86.70
2023-11-06T03:08:20.274Z,86.60
2023-11-06T03:08:41.218Z,86.60
2023-11-06T03:09:01.826Z,86.60
2023-11-06T03:09:22.770Z,86.80
2023-11-06T03:09:43.734Z,86.91
2023-11-06T03:10:04.667Z,86.91
2023-11-06T03:10:25.622Z,87.01
2023-11-06T03:10:46.610Z,87.01
2023-11-06T03:11:07.134Z,87.05
2023-11-06T03:11:28.063Z,87.05
2023-11-06T03:11:48.999Z,87.01
2023-11-06T03:12:09.929Z,87.01
2023-11-06T03:12:30.908Z,87.01
2023-11-06T03:12:51.859Z,87.01
2023-11-06T03:13:12.797Z,87.01
2023-11-06T03:13:33.745Z,86.91
2023-11-06T03:13:54.736Z,87.01
2023-11-06T03:14:15.726Z,86.91
2023-11-06T03:14:36.138Z,86.80
2023-11-06T03:14:57.107Z,86.80
2023-11-06T03:15:18.058Z,86.70
2023-11-06T03:15:38.995Z,86.91
2023-11-06T03:15:59.966Z,86.91
2023-11-06T03:16:20.912Z,87.01
2023-11-06T03:16:41.862Z,87.22
2023-11-06T03:17:02.819Z,87.26
2023-11-06T03:17:23.799Z,87.01
2023-11-06T03:17:44.714Z,87.15
2023-11-06T03:18:05.753Z,87.15
2023-11-06T03:18:26.240Z,87.05
2023-11-06T03:18:46.687Z,87.15
2023-11-06T03:19:07.600Z,87.15
2023-11-06T03:19:28.543Z,87.36
2023-11-06T03:19:49.497Z,87.15
2023-11-06T03:20:10.439Z,87.05
2023-11-06T03:20:31.409Z,87.01
2023-11-06T03:20:52.325Z,87.15
2023-11-06T03:21:13.290Z,87.36
2023-11-06T03:21:34.248Z,87.36
2023-11-06T03:21:55.182Z,87.57
2023-11-06T03:22:16.110Z,87.46
2023-11-06T03:22:37.048Z,87.67
2023-11-06T03:22:58.022Z,87.67
2023-11-06T03:23:18.946Z,87.67
2023-11-06T03:23:39.909Z,87.67
2023-11-06T03:24:00.834Z,87.77
2023-11-06T03:24:21.812Z,87.87
2023-11-06T03:24:42.760Z,87.87
2023-11-06T03:25:03.708Z,87.87
2023-11-06T03:25:24.654Z,87.77
2023-11-06T03:25:45.596Z,87.67
2023-11-06T03:26:06.585Z,87.87
2023-11-06T03:26:27.580Z,87.77
2023-11-06T03:26:48.017Z,87.87
2023-11-06T03:27:08.949Z,87.87
2023-11-06T03:27:29.860Z,87.77
2023-11-06T03:27:50.777Z,87.77
2023-11-06T03:28:11.698Z,87.98
2023-11-06T03:28:32.653Z,88.08
2023-11-06T03:28:53.629Z,87.98
2023-11-06T03:29:14.580Z,87.87
2023-11-06T03:29:35.490Z,87.87
2023-11-06T03:29:56.517Z,87.98
2023-11-06T03:30:17.462Z,88.08
2023-11-06T03:30:38.386Z,87.98
2023-11-06T03:30:59.345Z,87.98
2023-11-06T03:31:20.276Z,88.08
2023-11-06T03:31:41.250Z,88.29
2023-11-06T03:32:02.221Z,88.49
2023-11-06T03:32:23.193Z,88.43
2023-11-06T03:32:44.120Z,88.64
2023-11-06T03:33:05.058Z,88.53
2023-11-06T03:33:26.023Z,88.53
2023-11-06T03:33:47.104Z,88.64
2023-11-06T03:34:07.508Z,88.64
2023-11-06T03:34:28.417Z,88.59
2023-11-06T03:34:49.384Z,88.53
2023-11-06T03:35:10.310Z,88.43
2023-11-06T03:35:31.247Z,88.49
2023-11-06T03:35:52.189Z,88.53
2023-11-06T03:36:13.118Z,88.49
2023-11-06T03:36:34.059Z,88.53
2023-11-06T03:36:55.033Z,88.64
2023-11-06T03:37:15.998Z,88.74
2023-11-06T03:37:36.929Z,88.74
2023-11-06T03:37:57.941Z,88.84
2023-11-06T03:38:18.890Z,89.05
2023-11-06T03:38:39.840Z,88.95
2023-11-06T03:39:00.735Z,88.95
2023-11-06T03:39:21.687Z,88.84
2023-11-06T03:39:42.633Z,88.64
2023-11-06T03:40:03.566Z,88.64
2023-11-06T03:40:24.517Z,88.74
2023-11-06T03:40:45.426Z,88.74
2023-11-06T03:41:06.445Z,88.84
2023-11-06T03:41:27.038Z,88.84
2023-11-06T03:41:47.528Z,88.84
2023-11-06T03:42:08.522Z,88.84
2023-11-06T03:42:29.433Z,88.95
2023-11-06T03:42:50.355Z,89.15
2023-11-06T03:43:11.281Z,89.05
2023-11-06T03:43:32.224Z,89.05
2023-11-06T03:43:53.397Z,89.05
2023-11-06T03:44:14.064Z,88.95
2023-11-06T03:44:34.999Z,89.05
2023-11-06T03:44:55.938Z,88.95
2023-11-06T03:45:16.866Z,88.95
2023-11-06T03:45:37.786Z,88.95
2023-11-06T03:45:58.721Z,89.15
2023-11-06T03:46:19.672Z,89.05
2023-11-06T03:46:40.602Z,88.84
2023-11-06T03:47:01.575Z,89.05
2023-11-06T03:47:22.546Z,89.15
2023-11-06T03:47:43.535Z,89.05
2023-11-06T03:48:04.018Z,88.95
2023-11-06T03:48:25.023Z,88.95
2023-11-06T03:48:45.527Z,88.84
2023-11-06T03:49:05.923Z,88.74
2023-11-06T03:49:26.873Z,88.74
2023-11-06T03:49:47.830Z,88.84
2023-11-06T03:50:08.811Z,88.84
2023-11-06T03:50:29.728Z,88.74
2023-11-06T03:50:50.654Z,88.64
2023-11-06T03:51:11.599Z,88.64
2023-11-06T03:51:32.572Z,88.74
2023-11-06T03:51:53.570Z,88.74
2023-11-06T03:52:14.499Z,88.74
2023-11-06T03:52:35.422Z,88.64
2023-11-06T03:52:56.466Z,88.64
2023-11-06T03:53:16.908Z,88.84
2023-11-06T03:53:37.862Z,88.59
2023-11-06T03:53:58.839Z,88.64
2023-11-06T03:54:19.760Z,88.49
2023-11-06T03:54:40.759Z,88.39
2023-11-06T03:55:01.682Z,88.49
2023-11-06T03:55:22.625Z,88.49
2023-11-06T03:55:43.545Z,88.49
2023-11-06T03:56:04.525Z,88.39
2023-11-06T03:56:25.476Z,88.29
2023-11-06T03:56:46.394Z,88.49
2023-11-06T03:57:07.356Z,88.39
2023-11-06T03:57:28.305Z,88.29
2023-11-06T03:57:49.232Z,88.29
2023-11-06T03:58:10.175Z,88.29
2023-11-06T03:58:31.100Z,88.29
2023-11-06T03:58:52.066Z,88.29
2023-11-06T03:59:13.043Z,88.39
2023-11-06T03:59:34.038Z,88.49
2023-11-06T03:59:54.457Z,88.39
2023-11-06T04:00:15.391Z,88.49
2023-11-06T04:00:36.359Z,88.39
2023-11-06T04:00:57.278Z,88.39
2023-11-06T04:01:18.236Z,88.49
2023-11-06T04:01:39.189Z,88.39
2023-11-06T04:02:00.177Z,88.39
2023-11-06T04:02:20.713Z,88.29
2023-11-06T04:02:41.183Z,88.08
2023-11-06T04:03:02.158Z,88.08
2023-11-06T04:03:23.112Z,88.29
2023-11-06T04:03:44.105Z,88.49
2023-11-06T04:04:05.047Z,88.59
2023-11-06T04:04:25.566Z,88.59
2023-11-06T04:04:46.540Z,88.39
2023-11-06T04:05:07.570Z,88.39
2023-11-06T04:05:28.528Z,88.59
2023-11-06T04:05:49.488Z,88.59
2023-11-06T04:06:10.812Z,88.70
2023-11-06T04:06:31.217Z,88.80
2023-11-06T04:06:52.158Z,88.90
2023-11-06T04:07:13.080Z,88.90
2023-11-06T04:07:34.226Z,88.95
2023-11-06T04:07:54.699Z,88.84
2023-11-06T04:08:15.652Z,88.64
2023-11-06T04:08:36.822Z,88.59
2023-11-06T04:08:57.459Z,88.80
2023-11-06T04:09:18.410Z,89.15
2023-11-06T04:09:39.365Z,89.25
2023-11-06T04:10:00.327Z,88.95
2023-11-06T04:10:21.232Z,89.05
2023-11-06T04:10:42.168Z,89.15
2023-11-06T04:11:03.100Z,89.01
2023-11-06T04:11:24.123Z,88.84
2023-11-06T04:11:44.586Z,88.80
2023-11-06T04:12:05.586Z,88.70
2023-11-06T04:12:26.042Z,88.70
2023-11-06T04:12:47.026Z,88.49
2023-11-06T04:13:07.960Z,88.39
2023-11-06T04:13:28.906Z,88.49
2023-11-06T04:13:49.860Z,88.49
2023-11-06T04:14:10.798Z,88.39
2023-11-06T04:14:31.748Z,88.29
2023-11-06T04:14:52.648Z,88.39
2023-11-06T04:15:13.578Z,88.18
2023-11-06T04:15:34.516Z,88.18
2023-11-06T04:15:55.442Z,88.49
2023-11-06T04:16:16.399Z,88.59
2023-11-06T04:16:37.326Z,88.59
2023-11-06T04:16:58.296Z,88.59
2023-11-06T04:17:19.324Z,88.49
2023-11-06T04:17:40.283Z,88.39
2023-11-06T04:18:01.251Z,88.49
2023-11-06T04:18:22.268Z,88.64
2023-11-06T04:18:42.668Z,88.84
2023-11-06T04:19:03.566Z,88.95
2023-11-06T04:19:24.513Z,88.74
2023-11-06T04:19:45.477Z,88.53
2023-11-06T04:20:06.443Z,88.64
2023-11-06T04:20:27.484Z,88.74
2023-11-06T04:20:47.925Z,88.74
2023-11-06T04:21:08.841Z,88.84
2023-11-06T04:21:29.834Z,88.74
2023-11-06T04:21:50.755Z,88.74
2023-11-06T04:22:11.708Z,88.95
2023-11-06T04:22:32.635Z,88.84
2023-11-06T04:22:53.577Z,88.84
2023-11-06T04:23:14.572Z,88.64
2023-11-06T04:23:35.025Z,88.64
2023-11-06T04:23:55.993Z,88.64
2023-11-06T04:24:16.944Z,88.64
2023-11-06T04:24:37.883Z,88.53
2023-11-06T04:24:58.830Z,88.74
2023-11-06T04:25:19.782Z,88.64
2023-11-06T04:25:40.697Z,88.74
2023-11-06T04:26:01.636Z,88.64
2023-11-06T04:26:22.657Z,88.43
2023-11-06T04:26:43.533Z,88.33
2023-11-06T04:27:04.488Z,88.08
2023-11-06T04:27:25.415Z,87.87
2023-11-06T04:27:46.372Z,87.87
2023-11-06T04:28:07.326Z,87.77
2023-11-06T04:28:28.341Z,87.87
2023-11-06T04:28:48.820Z,87.87
2023-11-06T04:29:09.797Z,87.67